PWSweather.com
Personal Weather Stations
Station Observations
SUBOTICARS
SuboticaYU

SuboticaYU

Lat: 46.1296717, Lon: 19.641551

Elevation: 361

Station Type: Nexus

http://sumeteo.info

High Low Average
Temperature 70.2°F21.2°C 39.7°F4.3°C 55.2°F12.9°C
Dew Point 36.1°F2.3°C 16.5°F-8.6°C 26.3°F-3.2°C
Winds 13.8 mph 22.2 kmh 2.3 mph 3.7 kmh 7.0 mph ESE11.3 kmh ESE
Wind Gusts 19.6 mph31.5 kmh 3.5 mph5.6 kmh 9.0 mph14.5 kmh
Humidity 40% 27% 33%
Pressure 29.75 in1007.5 mb 29.61 in1002.7 mb -
Precipitation 0.00 in0.0 mm - -
Hour Temp Dew Point Humidity Winds Wind Gusts Pressure Precip Precip Rate Daily Precip Total
12:00 AM 47.8°F8.8°C 21.5°F-5.8°C 35% 5.8 mph NNE9.3 kmh NNE 6.9 mph11.1 kmh 29.74 in1007.1 mb - 0.00 in0.0 mm 0.00 in0.0 mm
12:10 AM 47.7°F8.7°C 21.3°F-5.9°C 35% 4.6 mph ENE7.4 kmh ENE 8.1 mph13.0 kmh 29.74 in1007.1 mb - 0.00 in0.0 mm 0.00 in0.0 mm
12:15 AM 47.5°F8.6°C 21.2°F-6.0°C 35% 5.8 mph NE9.3 kmh NE 6.9 mph11.1 kmh 29.74 in1007.1 mb - 0.00 in0.0 mm 0.00 in0.0 mm
12:20 AM 47.5°F8.6°C 21.2°F-6.0°C 35% 5.8 mph NNE9.3 kmh NNE 8.1 mph13.0 kmh 29.74 in1007.1 mb - 0.00 in0.0 mm 0.00 in0.0 mm
12:25 AM 47.3°F8.5°C 21.0°F-6.1°C 35% 5.8 mph NNE9.3 kmh NNE 6.9 mph11.1 kmh 29.74 in1007.1 mb - 0.00 in0.0 mm 0.00 in0.0 mm
12:30 AM 47.3°F8.5°C 21.0°F-6.1°C 35% 6.9 mph NNE11.1 kmh NNE 9.2 mph14.8 kmh 29.73 in1006.8 mb - 0.00 in0.0 mm 0.00 in0.0 mm
12:35 AM 47.3°F8.5°C 21.0°F-6.1°C 35% 5.8 mph NNE9.3 kmh NNE 4.6 mph7.4 kmh 29.73 in1006.8 mb - 0.00 in0.0 mm 0.00 in0.0 mm
12:40 AM 47.1°F8.4°C 20.8°F-6.2°C 35% 5.8 mph NNE9.3 kmh NNE 8.1 mph13.0 kmh 29.73 in1006.8 mb - 0.00 in0.0 mm 0.00 in0.0 mm
12:45 AM 46.9°F8.3°C 20.7°F-6.3°C 35% 4.6 mph NE7.4 kmh NE 8.1 mph13.0 kmh 29.74 in1007.1 mb - 0.00 in0.0 mm 0.00 in0.0 mm
12:50 AM 47.1°F8.4°C 20.8°F-6.2°C 35% 6.9 mph ENE11.1 kmh ENE 10.4 mph16.7 kmh 29.74 in1007.1 mb - 0.00 in0.0 mm 0.00 in0.0 mm
12:55 AM 46.9°F8.3°C 20.7°F-6.3°C 35% 4.6 mph NE7.4 kmh NE 9.2 mph14.8 kmh 29.74 in1007.1 mb - 0.00 in0.0 mm 0.00 in0.0 mm
01:00 AM 46.9°F8.3°C 20.7°F-6.3°C 35% 6.9 mph NE11.1 kmh NE 9.2 mph14.8 kmh 29.73 in1006.8 mb - 0.00 in0.0 mm 0.00 in0.0 mm
01:10 AM 46.8°F8.2°C 20.5°F-6.4°C 35% 5.8 mph NE9.3 kmh NE 5.8 mph9.3 kmh 29.73 in1006.8 mb - 0.00 in0.0 mm 0.00 in0.0 mm
01:15 AM 46.6°F8.1°C 20.4°F-6.4°C 35% 5.8 mph NE9.3 kmh NE 5.8 mph9.3 kmh 29.73 in1006.8 mb - 0.00 in0.0 mm 0.00 in0.0 mm
01:20 AM 46.4°F8.0°C 20.2°F-6.6°C 35% 6.9 mph NE11.1 kmh NE 5.8 mph9.3 kmh 29.73 in1006.8 mb - 0.00 in0.0 mm 0.00 in0.0 mm
01:25 AM 46.4°F8.0°C 20.2°F-6.6°C 35% 5.8 mph NNE9.3 kmh NNE 6.9 mph11.1 kmh 29.73 in1006.8 mb - 0.00 in0.0 mm 0.00 in0.0 mm
01:30 AM 46.2°F7.9°C 20.7°F-6.3°C 36% 6.9 mph NE11.1 kmh NE 9.2 mph14.8 kmh 29.73 in1006.8 mb - 0.00 in0.0 mm 0.00 in0.0 mm
01:35 AM 46.2°F7.9°C 20.7°F-6.3°C 36% 5.8 mph NE9.3 kmh NE 8.1 mph13.0 kmh 29.73 in1006.8 mb - 0.00 in0.0 mm 0.00 in0.0 mm
01:40 AM 46.0°F7.8°C 20.5°F-6.4°C 36% 5.8 mph NE9.3 kmh NE 9.2 mph14.8 kmh 29.73 in1006.8 mb - 0.00 in0.0 mm 0.00 in0.0 mm
01:45 AM 46.0°F7.8°C 20.5°F-6.4°C 36% 8.1 mph ENE13.0 kmh ENE 8.1 mph13.0 kmh 29.73 in1006.8 mb - 0.00 in0.0 mm 0.00 in0.0 mm
01:50 AM 45.9°F7.7°C 21.0°F-6.1°C 37% 4.6 mph NE7.4 kmh NE 5.8 mph9.3 kmh 29.73 in1006.8 mb - 0.00 in0.0 mm 0.00 in0.0 mm
01:55 AM 45.9°F7.7°C 20.4°F-6.4°C 36% 4.6 mph NNE7.4 kmh NNE 8.1 mph13.0 kmh 29.73 in1006.8 mb - 0.00 in0.0 mm 0.00 in0.0 mm
02:00 AM 45.8°F7.7°C 20.3°F-6.5°C 36% 5.8 mph E9.3 kmh E 8.1 mph13.0 kmh 29.74 in1007.1 mb - 0.00 in0.0 mm 0.00 in0.0 mm
02:10 AM 45.7°F7.6°C 20.2°F-6.6°C 36% 5.8 mph ENE9.3 kmh ENE 6.9 mph11.1 kmh 29.74 in1007.1 mb - 0.00 in0.0 mm 0.00 in0.0 mm
02:15 AM 45.9°F7.7°C 20.4°F-6.4°C 36% 5.8 mph ENE9.3 kmh ENE 6.9 mph11.1 kmh 29.73 in1006.8 mb - 0.00 in0.0 mm 0.00 in0.0 mm
02:20 AM 45.7°F7.6°C 20.2°F-6.6°C 36% 5.8 mph NE9.3 kmh NE 5.8 mph9.3 kmh 29.73 in1006.8 mb - 0.00 in0.0 mm 0.00 in0.0 mm
02:25 AM 45.5°F7.5°C 20.1°F-6.6°C 36% 6.9 mph ENE11.1 kmh ENE 8.1 mph13.0 kmh 29.73 in1006.8 mb - 0.00 in0.0 mm 0.00 in0.0 mm
02:30 AM 45.3°F7.4°C 19.9°F-6.7°C 36% 4.6 mph NE7.4 kmh NE 5.8 mph9.3 kmh 29.73 in1006.8 mb - 0.00 in0.0 mm 0.00 in0.0 mm
02:35 AM 45.1°F7.3°C 19.7°F-6.8°C 36% 5.8 mph NNE9.3 kmh NNE 6.9 mph11.1 kmh 29.73 in1006.8 mb - 0.00 in0.0 mm 0.00 in0.0 mm
02:40 AM 45.0°F7.2°C 20.2°F-6.6°C 37% 4.6 mph NNE7.4 kmh NNE 5.8 mph9.3 kmh 29.73 in1006.8 mb - 0.00 in0.0 mm 0.00 in0.0 mm
02:45 AM 44.8°F7.1°C 20.1°F-6.6°C 37% 4.6 mph NE7.4 kmh NE 8.1 mph13.0 kmh 29.73 in1006.8 mb - 0.00 in0.0 mm 0.00 in0.0 mm
02:50 AM 44.6°F7.0°C 19.3°F-7.1°C 36% 4.6 mph NE7.4 kmh NE 5.8 mph9.3 kmh 29.73 in1006.8 mb - 0.00 in0.0 mm 0.00 in0.0 mm
02:55 AM 44.6°F7.0°C 19.3°F-7.1°C 36% 5.8 mph ENE9.3 kmh ENE 8.1 mph13.0 kmh 29.73 in1006.8 mb - 0.00 in0.0 mm 0.00 in0.0 mm
03:00 AM 44.2°F6.8°C 19.6°F-6.9°C 37% 4.6 mph NNE7.4 kmh NNE 5.8 mph9.3 kmh 29.72 in1006.4 mb - 0.00 in0.0 mm 0.00 in0.0 mm
03:10 AM 44.1°F6.7°C 19.4°F-7.0°C 37% 4.6 mph ENE7.4 kmh ENE 4.6 mph7.4 kmh 29.72 in1006.4 mb - 0.00 in0.0 mm 0.00 in0.0 mm
03:15 AM 43.9°F6.6°C 19.3°F-7.1°C 37% 5.8 mph NE9.3 kmh NE 5.8 mph9.3 kmh 29.73 in1006.8 mb - 0.00 in0.0 mm 0.00 in0.0 mm
03:20 AM 43.7°F6.5°C 19.1°F-7.2°C 37% 4.6 mph NE7.4 kmh NE 8.1 mph13.0 kmh 29.73 in1006.8 mb - 0.00 in0.0 mm 0.00 in0.0 mm
03:25 AM 43.7°F6.5°C 19.1°F-7.2°C 37% 4.6 mph NNE7.4 kmh NNE 4.6 mph7.4 kmh 29.73 in1006.8 mb - 0.00 in0.0 mm 0.00 in0.0 mm
03:30 AM 43.6°F6.4°C 19.0°F-7.2°C 37% 4.6 mph NE7.4 kmh NE 4.6 mph7.4 kmh 29.73 in1006.8 mb - 0.00 in0.0 mm 0.00 in0.0 mm
03:35 AM 43.5°F6.4°C 18.9°F-7.3°C 37% 4.6 mph NE7.4 kmh NE 5.8 mph9.3 kmh 29.73 in1006.8 mb - 0.00 in0.0 mm 0.00 in0.0 mm
03:40 AM 43.2°F6.2°C 18.6°F-7.4°C 37% 3.5 mph ENE5.6 kmh ENE 4.6 mph7.4 kmh 29.73 in1006.8 mb - 0.00 in0.0 mm 0.00 in0.0 mm
03:45 AM 43.0°F6.1°C 18.5°F-7.5°C 37% 5.8 mph ENE9.3 kmh ENE 6.9 mph11.1 kmh 29.73 in1006.8 mb - 0.00 in0.0 mm 0.00 in0.0 mm
03:50 AM 42.8°F6.0°C 18.3°F-7.6°C 37% 3.5 mph NNW5.6 kmh NNW 5.8 mph9.3 kmh 29.73 in1006.8 mb - 0.00 in0.0 mm 0.00 in0.0 mm
03:55 AM 42.8°F6.0°C 18.3°F-7.6°C 37% 4.6 mph NE7.4 kmh NE 5.8 mph9.3 kmh 29.73 in1006.8 mb - 0.00 in0.0 mm 0.00 in0.0 mm
04:00 AM 42.6°F5.9°C 18.8°F-7.3°C 38% 4.6 mph NNE7.4 kmh NNE 6.9 mph11.1 kmh 29.73 in1006.8 mb - 0.00 in0.0 mm 0.00 in0.0 mm
04:10 AM 42.4°F5.8°C 18.6°F-7.4°C 38% 5.8 mph NNE9.3 kmh NNE 6.9 mph11.1 kmh 29.73 in1006.8 mb - 0.00 in0.0 mm 0.00 in0.0 mm
04:15 AM 42.3°F5.7°C 18.4°F-7.6°C 38% 4.6 mph NNE7.4 kmh NNE 5.8 mph9.3 kmh 29.73 in1006.8 mb - 0.00 in0.0 mm 0.00 in0.0 mm
04:20 AM 42.1°F5.6°C 17.6°F-8.0°C 37% 3.5 mph NE5.6 kmh NE 4.6 mph7.4 kmh 29.73 in1006.8 mb - 0.00 in0.0 mm 0.00 in0.0 mm
04:25 AM 41.7°F5.4°C 17.3°F-8.2°C 37% 3.5 mph NNE5.6 kmh NNE 3.5 mph5.6 kmh 29.73 in1006.8 mb - 0.00 in0.0 mm 0.00 in0.0 mm
04:30 AM 41.7°F5.4°C 17.3°F-8.2°C 37% 3.5 mph NNE5.6 kmh NNE 3.5 mph5.6 kmh 29.73 in1006.8 mb - 0.00 in0.0 mm 0.00 in0.0 mm
04:35 AM 41.5°F5.3°C 17.2°F-8.2°C 37% 3.5 mph NE5.6 kmh NE 3.5 mph5.6 kmh 29.73 in1006.8 mb - 0.00 in0.0 mm 0.00 in0.0 mm
04:40 AM 41.4°F5.2°C 17.0°F-8.3°C 37% 3.5 mph NE5.6 kmh NE 3.5 mph5.6 kmh 29.73 in1006.8 mb - 0.00 in0.0 mm 0.00 in0.0 mm
04:45 AM 41.4°F5.2°C 17.0°F-8.3°C 37% 4.6 mph NE7.4 kmh NE 4.6 mph7.4 kmh 29.73 in1006.8 mb - 0.00 in0.0 mm 0.00 in0.0 mm
04:50 AM 41.2°F5.1°C 16.8°F-8.4°C 37% 3.5 mph NE5.6 kmh NE 3.5 mph5.6 kmh 29.73 in1006.8 mb - 0.00 in0.0 mm 0.00 in0.0 mm
04:55 AM 40.9°F4.9°C 17.2°F-8.2°C 38% 3.5 mph NE5.6 kmh NE 3.5 mph5.6 kmh 29.73 in1006.8 mb - 0.00 in0.0 mm 0.00 in0.0 mm
05:00 AM 40.6°F4.8°C 17.0°F-8.3°C 38% 3.5 mph NE5.6 kmh NE 3.5 mph5.6 kmh 29.73 in1006.8 mb - 0.00 in0.0 mm 0.00 in0.0 mm
05:10 AM 40.6°F4.8°C 17.0°F-8.3°C 38% 3.5 mph ENE5.6 kmh ENE 4.6 mph7.4 kmh 29.73 in1006.8 mb - 0.00 in0.0 mm 0.00 in0.0 mm
05:15 AM 40.5°F4.7°C 16.8°F-8.4°C 38% 3.5 mph ENE5.6 kmh ENE 3.5 mph5.6 kmh 29.75 in1007.5 mb - 0.00 in0.0 mm 0.00 in0.0 mm
05:20 AM 40.1°F4.5°C 16.5°F-8.6°C 38% 3.5 mph NE5.6 kmh NE 3.5 mph5.6 kmh 29.75 in1007.5 mb - 0.00 in0.0 mm 0.00 in0.0 mm
05:25 AM 40.1°F4.5°C 16.5°F-8.6°C 38% 3.5 mph ENE5.6 kmh ENE 4.6 mph7.4 kmh 29.75 in1007.5 mb - 0.00 in0.0 mm 0.00 in0.0 mm
05:30 AM 39.9°F4.4°C 16.9°F-8.4°C 39% 3.5 mph NE5.6 kmh NE 3.5 mph5.6 kmh 29.74 in1007.1 mb - 0.00 in0.0 mm 0.00 in0.0 mm
05:35 AM 39.9°F4.4°C 16.9°F-8.4°C 39% 3.5 mph ENE5.6 kmh ENE 4.6 mph7.4 kmh 29.74 in1007.1 mb - 0.00 in0.0 mm 0.00 in0.0 mm
05:40 AM 39.7°F4.3°C 16.8°F-8.4°C 39% 3.5 mph NE5.6 kmh NE 3.5 mph5.6 kmh 29.74 in1007.1 mb - 0.00 in0.0 mm 0.00 in0.0 mm
05:45 AM 39.7°F4.3°C 16.8°F-8.4°C 39% 4.6 mph NE7.4 kmh NE 3.5 mph5.6 kmh 29.74 in1007.1 mb - 0.00 in0.0 mm 0.00 in0.0 mm
05:50 AM 39.9°F4.4°C 16.9°F-8.4°C 39% 2.3 mph NE3.7 kmh NE 3.5 mph5.6 kmh 29.74 in1007.1 mb - 0.00 in0.0 mm 0.00 in0.0 mm
05:55 AM 39.9°F4.4°C 17.5°F-8.1°C 40% 4.6 mph NNE7.4 kmh NNE 5.8 mph9.3 kmh 29.74 in1007.1 mb - 0.00 in0.0 mm 0.00 in0.0 mm
06:00 AM 39.9°F4.4°C 16.9°F-8.4°C 39% 4.6 mph NE7.4 kmh NE 3.5 mph5.6 kmh 29.74 in1007.1 mb - 0.00 in0.0 mm 0.00 in0.0 mm
06:10 AM 40.3°F4.6°C 17.3°F-8.2°C 39% 3.5 mph NNE5.6 kmh NNE 5.8 mph9.3 kmh 29.74 in1007.1 mb - 0.00 in0.0 mm 0.00 in0.0 mm
06:15 AM 40.6°F4.8°C 17.6°F-8.0°C 39% 4.6 mph NE7.4 kmh NE 5.8 mph9.3 kmh 29.73 in1006.8 mb - 0.00 in0.0 mm 0.00 in0.0 mm
06:20 AM 41.1°F5.1°C 17.4°F-8.1°C 38% 3.5 mph ENE5.6 kmh ENE 4.6 mph7.4 kmh 29.73 in1006.8 mb - 0.00 in0.0 mm 0.00 in0.0 mm
06:25 AM 41.4°F5.2°C 17.7°F-7.9°C 38% 4.6 mph NE7.4 kmh NE 6.9 mph11.1 kmh 29.73 in1006.8 mb - 0.00 in0.0 mm 0.00 in0.0 mm
06:30 AM 41.8°F5.4°C 18.6°F-7.4°C 39% 4.6 mph NE7.4 kmh NE 4.6 mph7.4 kmh 29.74 in1007.1 mb - 0.00 in0.0 mm 0.00 in0.0 mm
06:35 AM 42.1°F5.6°C 18.3°F-7.6°C 38% 5.8 mph NE9.3 kmh NE 6.9 mph11.1 kmh 29.74 in1007.1 mb - 0.00 in0.0 mm 0.00 in0.0 mm
06:40 AM 42.4°F5.8°C 19.2°F-7.1°C 39% 5.8 mph ENE9.3 kmh ENE 5.8 mph9.3 kmh 29.74 in1007.1 mb - 0.00 in0.0 mm 0.00 in0.0 mm
06:45 AM 42.8°F6.0°C 18.9°F-7.3°C 38% 5.8 mph NNE9.3 kmh NNE 8.1 mph13.0 kmh 29.73 in1006.8 mb - 0.00 in0.0 mm 0.00 in0.0 mm
06:50 AM 43.2°F6.2°C 19.8°F-6.8°C 39% 5.8 mph ENE9.3 kmh ENE 8.1 mph13.0 kmh 29.73 in1006.8 mb - 0.00 in0.0 mm 0.00 in0.0 mm
06:55 AM 43.5°F6.4°C 20.2°F-6.6°C 39% 5.8 mph ENE9.3 kmh ENE 5.8 mph9.3 kmh 29.73 in1006.8 mb - 0.00 in0.0 mm 0.00 in0.0 mm
07:00 AM 43.9°F6.6°C 20.5°F-6.4°C 39% 6.9 mph ENE11.1 kmh ENE 10.4 mph16.7 kmh 29.73 in1006.8 mb - 0.00 in0.0 mm 0.00 in0.0 mm
07:10 AM 44.8°F7.1°C 20.7°F-6.3°C 38% 5.8 mph E9.3 kmh E 5.8 mph9.3 kmh 29.73 in1006.8 mb - 0.00 in0.0 mm 0.00 in0.0 mm
07:15 AM 45.1°F7.3°C 21.0°F-6.1°C 38% 6.9 mph NE11.1 kmh NE 8.1 mph13.0 kmh 29.74 in1007.1 mb - 0.00 in0.0 mm 0.00 in0.0 mm
07:20 AM 45.6°F7.6°C 21.4°F-5.9°C 38% 5.8 mph E9.3 kmh E 6.9 mph11.1 kmh 29.74 in1007.1 mb - 0.00 in0.0 mm 0.00 in0.0 mm
07:25 AM 46.0°F7.8°C 21.8°F-5.7°C 38% 5.8 mph ENE9.3 kmh ENE 5.8 mph9.3 kmh 29.74 in1007.1 mb - 0.00 in0.0 mm 0.00 in0.0 mm
07:30 AM 46.4°F8.0°C 21.5°F-5.8°C 37% 4.6 mph ENE7.4 kmh ENE 4.6 mph7.4 kmh 29.74 in1007.1 mb - 0.00 in0.0 mm 0.00 in0.0 mm
07:35 AM 47.3°F8.5°C 22.3°F-5.4°C 37% 3.5 mph E5.6 kmh E 3.5 mph5.6 kmh 29.74 in1007.1 mb - 0.00 in0.0 mm 0.00 in0.0 mm
07:40 AM 47.7°F8.7°C 22.6°F-5.2°C 37% 4.6 mph NE7.4 kmh NE 6.9 mph11.1 kmh 29.74 in1007.1 mb - 0.00 in0.0 mm 0.00 in0.0 mm
07:45 AM 48.0°F8.9°C 22.9°F-5.1°C 37% 4.6 mph NNE7.4 kmh NNE 6.9 mph11.1 kmh 29.74 in1007.1 mb - 0.00 in0.0 mm 0.00 in0.0 mm
07:50 AM 48.6°F9.2°C 23.5°F-4.7°C 37% 3.5 mph E5.6 kmh E 4.6 mph7.4 kmh 29.74 in1007.1 mb - 0.00 in0.0 mm 0.00 in0.0 mm
07:55 AM 49.2°F9.6°C 24.0°F-4.4°C 37% 4.6 mph E7.4 kmh E 4.6 mph7.4 kmh 29.74 in1007.1 mb - 0.00 in0.0 mm 0.00 in0.0 mm
08:00 AM 49.8°F9.9°C 24.6°F-4.1°C 37% 4.6 mph ENE7.4 kmh ENE 4.6 mph7.4 kmh 29.74 in1007.1 mb - 0.00 in0.0 mm 0.00 in0.0 mm
08:10 AM 51.4°F10.8°C 25.3°F-3.7°C 36% 4.6 mph E7.4 kmh E 4.6 mph7.4 kmh 29.74 in1007.1 mb - 0.00 in0.0 mm 0.00 in0.0 mm
08:15 AM 52.1°F11.2°C 26.6°F-3.0°C 37% 4.6 mph SE7.4 kmh SE 3.5 mph5.6 kmh 29.73 in1006.8 mb - 0.00 in0.0 mm 0.00 in0.0 mm
08:20 AM 52.9°F11.6°C 27.3°F-2.6°C 37% 6.9 mph ESE11.1 kmh ESE 8.1 mph13.0 kmh 29.73 in1006.8 mb - 0.00 in0.0 mm 0.00 in0.0 mm
08:25 AM 53.7°F12.1°C 27.3°F-2.6°C 36% 8.1 mph SE13.0 kmh SE 11.5 mph18.5 kmh 29.73 in1006.8 mb - 0.00 in0.0 mm 0.00 in0.0 mm
08:30 AM 54.0°F12.2°C 27.6°F-2.4°C 36% 4.6 mph SE7.4 kmh SE 5.8 mph9.3 kmh 29.73 in1006.8 mb - 0.00 in0.0 mm 0.00 in0.0 mm
08:35 AM 54.7°F12.6°C 28.2°F-2.1°C 36% 8.1 mph ESE13.0 kmh ESE 10.4 mph16.7 kmh 29.73 in1006.8 mb - 0.00 in0.0 mm 0.00 in0.0 mm
08:40 AM 55.0°F12.8°C 28.5°F-1.9°C 36% 8.1 mph SE13.0 kmh SE 8.1 mph13.0 kmh 29.73 in1006.8 mb - 0.00 in0.0 mm 0.00 in0.0 mm
08:45 AM 55.4°F13.0°C 28.9°F-1.7°C 36% 11.5 mph ESE18.5 kmh ESE 10.4 mph16.7 kmh 29.74 in1007.1 mb - 0.00 in0.0 mm 0.00 in0.0 mm
08:50 AM 55.4°F13.0°C 28.9°F-1.7°C 36% 10.4 mph SSE16.7 kmh SSE 11.5 mph18.5 kmh 29.74 in1007.1 mb - 0.00 in0.0 mm 0.00 in0.0 mm
08:55 AM 56.0°F13.3°C 29.4°F-1.4°C 36% 9.2 mph S14.8 kmh S 12.7 mph20.4 kmh 29.74 in1007.1 mb - 0.00 in0.0 mm 0.00 in0.0 mm
09:00 AM 56.3°F13.5°C 29.7°F-1.3°C 36% 6.9 mph SE11.1 kmh SE 13.8 mph22.2 kmh 29.74 in1007.1 mb - 0.00 in0.0 mm 0.00 in0.0 mm
09:10 AM 57.0°F13.9°C 30.3°F-0.9°C 36% 9.2 mph SSW14.8 kmh SSW 10.4 mph16.7 kmh 29.74 in1007.1 mb - 0.00 in0.0 mm 0.00 in0.0 mm
09:15 AM 57.4°F14.1°C 29.9°F-1.2°C 35% 9.2 mph SSE14.8 kmh SSE 15.0 mph24.1 kmh 29.74 in1007.1 mb - 0.00 in0.0 mm 0.00 in0.0 mm
09:20 AM 57.7°F14.3°C 30.2°F-1.0°C 35% 12.7 mph SE20.4 kmh SE 12.7 mph20.4 kmh 29.74 in1007.1 mb - 0.00 in0.0 mm 0.00 in0.0 mm
09:25 AM 58.1°F14.5°C 30.6°F-0.8°C 35% 9.2 mph SSE14.8 kmh SSE 12.7 mph20.4 kmh 29.74 in1007.1 mb - 0.00 in0.0 mm 0.00 in0.0 mm
09:30 AM 58.3°F14.6°C 30.7°F-0.7°C 35% 11.5 mph ESE18.5 kmh ESE 11.5 mph18.5 kmh 29.74 in1007.1 mb - 0.00 in0.0 mm 0.00 in0.0 mm
09:35 AM 58.6°F14.8°C 31.0°F-0.6°C 35% 10.4 mph ESE16.7 kmh ESE 10.4 mph16.7 kmh 29.74 in1007.1 mb - 0.00 in0.0 mm 0.00 in0.0 mm
09:40 AM 58.8°F14.9°C 31.2°F-0.4°C 35% 9.2 mph SSE14.8 kmh SSE 10.4 mph16.7 kmh 29.74 in1007.1 mb - 0.00 in0.0 mm 0.00 in0.0 mm
09:45 AM 59.3°F15.2°C 30.9°F-0.6°C 34% 8.1 mph SE13.0 kmh SE 11.5 mph18.5 kmh 29.74 in1007.1 mb - 0.00 in0.0 mm 0.00 in0.0 mm
09:50 AM 59.7°F15.4°C 31.3°F-0.4°C 34% 9.2 mph ESE14.8 kmh ESE 12.7 mph20.4 kmh 29.74 in1007.1 mb - 0.00 in0.0 mm 0.00 in0.0 mm
09:55 AM 60.2°F15.7°C 31.7°F-0.2°C 34% 5.8 mph SSW9.3 kmh SSW 9.2 mph14.8 kmh 29.74 in1007.1 mb - 0.00 in0.0 mm 0.00 in0.0 mm
10:00 AM 60.3°F15.7°C 31.8°F-0.1°C 34% 6.9 mph SSE11.1 kmh SSE 6.9 mph11.1 kmh 29.74 in1007.1 mb - 0.00 in0.0 mm 0.00 in0.0 mm
10:10 AM 61.2°F16.2°C 32.5°F0.3°C 34% 10.4 mph SSE16.7 kmh SSE 12.7 mph20.4 kmh 29.74 in1007.1 mb - 0.00 in0.0 mm 0.00 in0.0 mm
10:15 AM 61.0°F16.1°C 32.4°F0.2°C 34% 9.2 mph ESE14.8 kmh ESE 12.7 mph20.4 kmh 29.73 in1006.8 mb - 0.00 in0.0 mm 0.00 in0.0 mm
10:20 AM 61.2°F16.2°C 32.6°F0.3°C 34% 6.9 mph SSE11.1 kmh SSE 9.2 mph14.8 kmh 29.73 in1006.8 mb - 0.00 in0.0 mm 0.00 in0.0 mm
10:25 AM 61.5°F16.4°C 32.9°F0.5°C 34% 8.1 mph SE13.0 kmh SE 6.9 mph11.1 kmh 29.73 in1006.8 mb - 0.00 in0.0 mm 0.00 in0.0 mm
10:30 AM 61.7°F16.5°C 33.0°F0.6°C 34% 6.9 mph ESE11.1 kmh ESE 5.8 mph9.3 kmh 29.73 in1006.8 mb - 0.00 in0.0 mm 0.00 in0.0 mm
10:35 AM 62.2°F16.8°C 33.5°F0.8°C 34% 5.8 mph SSW9.3 kmh SSW 8.1 mph13.0 kmh 29.73 in1006.8 mb - 0.00 in0.0 mm 0.00 in0.0 mm
10:40 AM 62.6°F17.0°C 33.1°F0.6°C 33% 6.9 mph SE11.1 kmh SE 9.2 mph14.8 kmh 29.73 in1006.8 mb - 0.00 in0.0 mm 0.00 in0.0 mm
10:45 AM 62.8°F17.1°C 33.2°F0.7°C 33% 9.2 mph S14.8 kmh S 9.2 mph14.8 kmh 29.72 in1006.4 mb - 0.00 in0.0 mm 0.00 in0.0 mm
10:50 AM 63.3°F17.4°C 33.7°F0.9°C 33% 5.8 mph SSW9.3 kmh SSW 10.4 mph16.7 kmh 29.72 in1006.4 mb - 0.00 in0.0 mm 0.00 in0.0 mm
10:55 AM 63.3°F17.4°C 33.7°F0.9°C 33% 5.8 mph S9.3 kmh S 6.9 mph11.1 kmh 29.72 in1006.4 mb - 0.00 in0.0 mm 0.00 in0.0 mm
11:00 AM 63.5°F17.5°C 33.9°F1.1°C 33% 5.8 mph SE9.3 kmh SE 8.1 mph13.0 kmh 29.73 in1006.8 mb - 0.00 in0.0 mm 0.00 in0.0 mm
11:10 AM 63.9°F17.7°C 34.2°F1.2°C 33% 6.9 mph SE11.1 kmh SE 9.2 mph14.8 kmh 29.73 in1006.8 mb - 0.00 in0.0 mm 0.00 in0.0 mm
11:15 AM 64.0°F17.8°C 34.3°F1.3°C 33% 8.1 mph SSE13.0 kmh SSE 10.4 mph16.7 kmh 29.72 in1006.4 mb - 0.00 in0.0 mm 0.00 in0.0 mm
11:20 AM 64.1°F17.8°C 34.4°F1.3°C 33% 3.5 mph SSE5.6 kmh SSE 5.8 mph9.3 kmh 29.72 in1006.4 mb - 0.00 in0.0 mm 0.00 in0.0 mm
11:25 AM 65.0°F18.3°C 34.4°F1.3°C 32% 8.1 mph S13.0 kmh S 8.1 mph13.0 kmh 29.72 in1006.4 mb - 0.00 in0.0 mm 0.00 in0.0 mm
11:30 AM 64.9°F18.3°C 34.3°F1.3°C 32% 5.8 mph SSE9.3 kmh SSE 10.4 mph16.7 kmh 29.72 in1006.4 mb - 0.00 in0.0 mm 0.00 in0.0 mm
11:35 AM 64.8°F18.2°C 34.2°F1.2°C 32% 4.6 mph S7.4 kmh S 5.8 mph9.3 kmh 29.72 in1006.4 mb - 0.00 in0.0 mm 0.00 in0.0 mm
11:40 AM 65.3°F18.5°C 34.7°F1.5°C 32% 5.8 mph S9.3 kmh S 3.5 mph5.6 kmh 29.72 in1006.4 mb - 0.00 in0.0 mm 0.00 in0.0 mm
11:45 AM 65.7°F18.7°C 35.0°F1.7°C 32% 4.6 mph SSW7.4 kmh SSW 6.9 mph11.1 kmh 29.71 in1006.1 mb - 0.00 in0.0 mm 0.00 in0.0 mm
11:50 AM 66.4°F19.1°C 34.8°F1.6°C 31% 8.1 mph SSE13.0 kmh SSE 12.7 mph20.4 kmh 29.71 in1006.1 mb - 0.00 in0.0 mm 0.00 in0.0 mm
11:55 AM 65.7°F18.7°C 34.2°F1.2°C 31% 5.8 mph SE9.3 kmh SE 6.9 mph11.1 kmh 29.71 in1006.1 mb - 0.00 in0.0 mm 0.00 in0.0 mm
12:00 PM 66.0°F18.9°C 34.5°F1.4°C 31% 3.5 mph E5.6 kmh E 5.8 mph9.3 kmh 29.71 in1006.1 mb - 0.00 in0.0 mm 0.00 in0.0 mm
12:10 PM 66.9°F19.4°C 35.3°F1.8°C 31% 5.8 mph ESE9.3 kmh ESE 11.5 mph18.5 kmh 29.71 in1006.1 mb - 0.00 in0.0 mm 0.00 in0.0 mm
12:15 PM 66.6°F19.2°C 35.0°F1.7°C 31% 6.9 mph SE11.1 kmh SE 8.1 mph13.0 kmh 29.70 in1005.8 mb - 0.00 in0.0 mm 0.00 in0.0 mm
12:20 PM 66.9°F19.4°C 35.2°F1.8°C 31% 4.6 mph SSE7.4 kmh SSE 5.8 mph9.3 kmh 29.70 in1005.8 mb - 0.00 in0.0 mm 0.00 in0.0 mm
12:25 PM 67.3°F19.6°C 35.6°F2.0°C 31% 6.9 mph ESE11.1 kmh ESE 9.2 mph14.8 kmh 29.70 in1005.8 mb - 0.00 in0.0 mm 0.00 in0.0 mm
12:30 PM 66.7°F19.3°C 35.1°F1.7°C 31% 8.1 mph SE13.0 kmh SE 8.1 mph13.0 kmh 29.70 in1005.8 mb - 0.00 in0.0 mm 0.00 in0.0 mm
12:35 PM 67.5°F19.7°C 35.7°F2.1°C 31% 9.2 mph ESE14.8 kmh ESE 11.5 mph18.5 kmh 29.70 in1005.8 mb - 0.00 in0.0 mm 0.00 in0.0 mm
12:40 PM 67.4°F19.7°C 35.7°F2.1°C 31% 4.6 mph E7.4 kmh E 6.9 mph11.1 kmh 29.70 in1005.8 mb - 0.00 in0.0 mm 0.00 in0.0 mm
12:45 PM 67.5°F19.7°C 35.7°F2.1°C 31% 6.9 mph ESE11.1 kmh ESE 9.2 mph14.8 kmh 29.69 in1005.4 mb - 0.00 in0.0 mm 0.00 in0.0 mm
12:50 PM 67.5°F19.7°C 35.8°F2.1°C 31% 3.5 mph SSW5.6 kmh SSW 3.5 mph5.6 kmh 29.69 in1005.4 mb - 0.00 in0.0 mm 0.00 in0.0 mm
12:55 PM 67.8°F19.9°C 35.2°F1.8°C 30% 10.4 mph SSW16.7 kmh SSW 12.7 mph20.4 kmh 29.69 in1005.4 mb - 0.00 in0.0 mm 0.00 in0.0 mm
01:00 PM 68.0°F20.0°C 35.4°F1.9°C 30% 6.9 mph SSE11.1 kmh SSE 8.1 mph13.0 kmh 29.68 in1005.1 mb - 0.00 in0.0 mm 0.00 in0.0 mm
01:10 PM 68.6°F20.3°C 35.1°F1.7°C 29% 6.9 mph ESE11.1 kmh ESE 9.2 mph14.8 kmh 29.68 in1005.1 mb - 0.00 in0.0 mm 0.00 in0.0 mm
01:15 PM 68.5°F20.3°C 35.0°F1.7°C 29% 4.6 mph S7.4 kmh S 3.5 mph5.6 kmh 29.68 in1005.1 mb - 0.00 in0.0 mm 0.00 in0.0 mm
01:20 PM 68.5°F20.3°C 35.0°F1.7°C 29% 6.9 mph E11.1 kmh E 6.9 mph11.1 kmh 29.68 in1005.1 mb - 0.00 in0.0 mm 0.00 in0.0 mm
01:25 PM 68.7°F20.4°C 35.2°F1.8°C 29% 6.9 mph E11.1 kmh E 10.4 mph16.7 kmh 29.68 in1005.1 mb - 0.00 in0.0 mm 0.00 in0.0 mm
01:30 PM 68.9°F20.5°C 35.3°F1.8°C 29% 6.9 mph SE11.1 kmh SE 8.1 mph13.0 kmh 29.67 in1004.7 mb - 0.00 in0.0 mm 0.00 in0.0 mm
01:35 PM 69.4°F20.8°C 35.8°F2.1°C 29% 6.9 mph ESE11.1 kmh ESE 9.2 mph14.8 kmh 29.67 in1004.7 mb - 0.00 in0.0 mm 0.00 in0.0 mm
01:40 PM 69.8°F21.0°C 36.1°F2.3°C 29% 6.9 mph SE11.1 kmh SE 10.4 mph16.7 kmh 29.67 in1004.7 mb - 0.00 in0.0 mm 0.00 in0.0 mm
01:45 PM 69.2°F20.7°C 35.6°F2.0°C 29% 5.8 mph E9.3 kmh E 8.1 mph13.0 kmh 29.66 in1004.4 mb - 0.00 in0.0 mm 0.00 in0.0 mm
01:50 PM 69.2°F20.7°C 35.6°F2.0°C 29% 2.3 mph WNW3.7 kmh WNW 3.5 mph5.6 kmh 29.66 in1004.4 mb - 0.00 in0.0 mm 0.00 in0.0 mm
01:55 PM 69.6°F20.9°C 35.9°F2.2°C 29% 6.9 mph SSE11.1 kmh SSE 5.8 mph9.3 kmh 29.66 in1004.4 mb - 0.00 in0.0 mm 0.00 in0.0 mm
02:00 PM 69.4°F20.8°C 35.8°F2.1°C 29% 8.1 mph SSE13.0 kmh SSE 9.2 mph14.8 kmh 29.65 in1004.1 mb - 0.00 in0.0 mm 0.00 in0.0 mm
02:10 PM 69.6°F20.9°C 35.9°F2.2°C 29% 6.9 mph ESE11.1 kmh ESE 8.1 mph13.0 kmh 29.65 in1004.1 mb - 0.00 in0.0 mm 0.00 in0.0 mm
02:15 PM 69.5°F20.8°C 35.9°F2.2°C 29% 6.9 mph E11.1 kmh E 6.9 mph11.1 kmh 29.66 in1004.4 mb - 0.00 in0.0 mm 0.00 in0.0 mm
02:20 PM 69.4°F20.8°C 35.7°F2.1°C 29% 8.1 mph ESE13.0 kmh ESE 9.2 mph14.8 kmh 29.66 in1004.4 mb - 0.00 in0.0 mm 0.00 in0.0 mm
02:25 PM 69.6°F20.9°C 35.9°F2.2°C 29% 4.6 mph S7.4 kmh S 4.6 mph7.4 kmh 29.66 in1004.4 mb - 0.00 in0.0 mm 0.00 in0.0 mm
02:30 PM 69.8°F21.0°C 35.2°F1.8°C 28% 6.9 mph ESE11.1 kmh ESE 10.4 mph16.7 kmh 29.66 in1004.4 mb - 0.00 in0.0 mm 0.00 in0.0 mm
02:35 PM 69.6°F20.9°C 35.0°F1.7°C 28% 2.3 mph ENE3.7 kmh ENE 4.6 mph7.4 kmh 29.66 in1004.4 mb - 0.00 in0.0 mm 0.00 in0.0 mm
02:40 PM 69.4°F20.8°C 34.9°F1.6°C 28% 5.8 mph SSE9.3 kmh SSE 6.9 mph11.1 kmh 29.66 in1004.4 mb - 0.00 in0.0 mm 0.00 in0.0 mm
02:45 PM 69.6°F20.9°C 35.0°F1.7°C 28% 10.4 mph SSE16.7 kmh SSE 10.4 mph16.7 kmh 29.65 in1004.1 mb - 0.00 in0.0 mm 0.00 in0.0 mm
02:50 PM 69.6°F20.9°C 35.0°F1.7°C 28% 5.8 mph ESE9.3 kmh ESE 6.9 mph11.1 kmh 29.65 in1004.1 mb - 0.00 in0.0 mm 0.00 in0.0 mm
02:55 PM 69.6°F20.9°C 35.0°F1.7°C 28% 5.8 mph ESE9.3 kmh ESE 5.8 mph9.3 kmh 29.65 in1004.1 mb - 0.00 in0.0 mm 0.00 in0.0 mm
03:00 PM 69.8°F21.0°C 35.2°F1.8°C 28% 8.1 mph ESE13.0 kmh ESE 10.4 mph16.7 kmh 29.64 in1003.7 mb - 0.00 in0.0 mm 0.00 in0.0 mm
03:10 PM 69.4°F20.8°C 34.9°F1.6°C 28% 4.6 mph SSE7.4 kmh SSE 5.8 mph9.3 kmh 29.64 in1003.7 mb - 0.00 in0.0 mm 0.00 in0.0 mm
03:15 PM 69.4°F20.8°C 34.9°F1.6°C 28% 4.6 mph ESE7.4 kmh ESE 6.9 mph11.1 kmh 29.63 in1003.4 mb - 0.00 in0.0 mm 0.00 in0.0 mm
03:20 PM 69.8°F21.0°C 35.2°F1.8°C 28% 6.9 mph SE11.1 kmh SE 10.4 mph16.7 kmh 29.63 in1003.4 mb - 0.00 in0.0 mm 0.00 in0.0 mm
03:25 PM 70.0°F21.1°C 35.4°F1.9°C 28% 5.8 mph ESE9.3 kmh ESE 6.9 mph11.1 kmh 29.63 in1003.4 mb - 0.00 in0.0 mm 0.00 in0.0 mm
03:30 PM 70.2°F21.2°C 35.5°F1.9°C 28% 5.8 mph ESE9.3 kmh ESE 9.2 mph14.8 kmh 29.63 in1003.4 mb - 0.00 in0.0 mm 0.00 in0.0 mm
03:35 PM 69.8°F21.0°C 35.2°F1.8°C 28% 6.9 mph ESE11.1 kmh ESE 8.1 mph13.0 kmh 29.63 in1003.4 mb - 0.00 in0.0 mm 0.00 in0.0 mm
03:40 PM 69.8°F21.0°C 35.2°F1.8°C 28% 8.1 mph ESE13.0 kmh ESE 9.2 mph14.8 kmh 29.63 in1003.4 mb - 0.00 in0.0 mm 0.00 in0.0 mm
03:45 PM 69.4°F20.8°C 34.9°F1.6°C 28% 5.8 mph E9.3 kmh E 6.9 mph11.1 kmh 29.63 in1003.4 mb - 0.00 in0.0 mm 0.00 in0.0 mm
03:50 PM 69.3°F20.7°C 34.8°F1.6°C 28% 6.9 mph S11.1 kmh S 10.4 mph16.7 kmh 29.63 in1003.4 mb - 0.00 in0.0 mm 0.00 in0.0 mm
03:55 PM 69.4°F20.8°C 34.9°F1.6°C 28% 5.8 mph ESE9.3 kmh ESE 5.8 mph9.3 kmh 29.63 in1003.4 mb - 0.00 in0.0 mm 0.00 in0.0 mm
04:00 PM 69.4°F20.8°C 34.9°F1.6°C 28% 4.6 mph SE7.4 kmh SE 6.9 mph11.1 kmh 29.62 in1003.0 mb - 0.00 in0.0 mm 0.00 in0.0 mm
04:10 PM 69.1°F20.6°C 33.7°F0.9°C 27% 6.9 mph SSW11.1 kmh SSW 5.8 mph9.3 kmh 29.62 in1003.0 mb - 0.00 in0.0 mm 0.00 in0.0 mm
04:15 PM 68.9°F20.5°C 33.5°F0.8°C 27% 5.8 mph SSE9.3 kmh SSE 8.1 mph13.0 kmh 29.62 in1003.0 mb - 0.00 in0.0 mm 0.00 in0.0 mm
04:20 PM 68.7°F20.4°C 33.4°F0.8°C 27% 5.8 mph SE9.3 kmh SE 6.9 mph11.1 kmh 29.62 in1003.0 mb - 0.00 in0.0 mm 0.00 in0.0 mm
04:25 PM 68.7°F20.4°C 33.4°F0.8°C 27% 6.9 mph E11.1 kmh E 10.4 mph16.7 kmh 29.62 in1003.0 mb - 0.00 in0.0 mm 0.00 in0.0 mm
04:30 PM 68.4°F20.2°C 33.1°F0.6°C 27% 6.9 mph ESE11.1 kmh ESE 8.1 mph13.0 kmh 29.62 in1003.0 mb - 0.00 in0.0 mm 0.00 in0.0 mm
04:35 PM 68.4°F20.2°C 33.0°F0.6°C 27% 8.1 mph SE13.0 kmh SE 8.1 mph13.0 kmh 29.62 in1003.0 mb - 0.00 in0.0 mm 0.00 in0.0 mm
04:40 PM 68.1°F20.1°C 32.8°F0.4°C 27% 8.1 mph ESE13.0 kmh ESE 8.1 mph13.0 kmh 29.62 in1003.0 mb - 0.00 in0.0 mm 0.00 in0.0 mm
04:45 PM 68.1°F20.1°C 32.8°F0.4°C 27% 5.8 mph E9.3 kmh E 8.1 mph13.0 kmh 29.61 in1002.7 mb - 0.00 in0.0 mm 0.00 in0.0 mm
04:50 PM 67.8°F19.9°C 32.6°F0.3°C 27% 5.8 mph SE9.3 kmh SE 6.9 mph11.1 kmh 29.61 in1002.7 mb - 0.00 in0.0 mm 0.00 in0.0 mm
04:55 PM 67.6°F19.8°C 32.4°F0.2°C 27% 8.1 mph SSE13.0 kmh SSE 10.4 mph16.7 kmh 29.61 in1002.7 mb - 0.00 in0.0 mm 0.00 in0.0 mm
05:00 PM 67.3°F19.6°C 32.1°F0.1°C 27% 6.9 mph SE11.1 kmh SE 6.9 mph11.1 kmh 29.62 in1003.0 mb - 0.00 in0.0 mm 0.00 in0.0 mm
05:10 PM 66.6°F19.2°C 31.6°F-0.2°C 27% 6.9 mph SE11.1 kmh SE 9.2 mph14.8 kmh 29.62 in1003.0 mb - 0.00 in0.0 mm 0.00 in0.0 mm
05:15 PM 66.1°F18.9°C 31.1°F-0.5°C 27% 8.1 mph SE13.0 kmh SE 9.2 mph14.8 kmh 29.62 in1003.0 mb - 0.00 in0.0 mm 0.00 in0.0 mm
05:20 PM 65.8°F18.8°C 31.8°F-0.1°C 28% 5.8 mph ESE9.3 kmh ESE 9.2 mph14.8 kmh 29.62 in1003.0 mb - 0.00 in0.0 mm 0.00 in0.0 mm
05:25 PM 65.7°F18.7°C 31.6°F-0.2°C 28% 5.8 mph E9.3 kmh E 5.8 mph9.3 kmh 29.62 in1003.0 mb - 0.00 in0.0 mm 0.00 in0.0 mm
05:30 PM 65.3°F18.5°C 31.3°F-0.4°C 28% 5.8 mph SE9.3 kmh SE 6.9 mph11.1 kmh 29.62 in1003.0 mb - 0.00 in0.0 mm 0.00 in0.0 mm
05:35 PM 65.1°F18.4°C 31.2°F-0.4°C 28% 6.9 mph ESE11.1 kmh ESE 9.2 mph14.8 kmh 29.62 in1003.0 mb - 0.00 in0.0 mm 0.00 in0.0 mm
05:40 PM 64.8°F18.2°C 30.9°F-0.6°C 28% 5.8 mph SE9.3 kmh SE 8.1 mph13.0 kmh 29.62 in1003.0 mb - 0.00 in0.0 mm 0.00 in0.0 mm
05:45 PM 64.5°F18.1°C 30.7°F-0.7°C 28% 6.9 mph SSE11.1 kmh SSE 8.1 mph13.0 kmh 29.62 in1003.0 mb - 0.00 in0.0 mm 0.00 in0.0 mm
05:50 PM 64.2°F17.9°C 30.4°F-0.9°C 28% 5.8 mph ESE9.3 kmh ESE 8.1 mph13.0 kmh 29.62 in1003.0 mb - 0.00 in0.0 mm 0.00 in0.0 mm
05:55 PM 63.9°F17.7°C 30.1°F-1.1°C 28% 6.9 mph SE11.1 kmh SE 8.1 mph13.0 kmh 29.62 in1003.0 mb - 0.00 in0.0 mm 0.00 in0.0 mm
06:00 PM 63.3°F17.4°C 30.5°F-0.8°C 29% 4.6 mph SE7.4 kmh SE 4.6 mph7.4 kmh 29.62 in1003.0 mb - 0.00 in0.0 mm 0.00 in0.0 mm
06:10 PM 62.6°F17.0°C 29.9°F-1.2°C 29% 6.9 mph SE11.1 kmh SE 6.9 mph11.1 kmh 29.62 in1003.0 mb - 0.00 in0.0 mm 0.00 in0.0 mm
06:15 PM 62.4°F16.9°C 28.8°F-1.8°C 28% 6.9 mph SE11.1 kmh SE 10.4 mph16.7 kmh 29.62 in1003.0 mb - 0.00 in0.0 mm 0.00 in0.0 mm
06:20 PM 61.9°F16.6°C 28.4°F-2.0°C 28% 8.1 mph ESE13.0 kmh ESE 10.4 mph16.7 kmh 29.62 in1003.0 mb - 0.00 in0.0 mm 0.00 in0.0 mm
06:25 PM 61.7°F16.5°C 28.2°F-2.1°C 28% 8.1 mph SE13.0 kmh SE 8.1 mph13.0 kmh 29.62 in1003.0 mb - 0.00 in0.0 mm 0.00 in0.0 mm
06:30 PM 61.2°F16.2°C 27.8°F-2.3°C 28% 6.9 mph S11.1 kmh S 9.2 mph14.8 kmh 29.62 in1003.0 mb - 0.00 in0.0 mm 0.00 in0.0 mm
06:35 PM 60.6°F15.9°C 27.3°F-2.6°C 28% 8.1 mph SE13.0 kmh SE 13.8 mph22.2 kmh 29.62 in1003.0 mb - 0.00 in0.0 mm 0.00 in0.0 mm
06:40 PM 60.3°F15.7°C 27.1°F-2.7°C 28% 8.1 mph ESE13.0 kmh ESE 12.7 mph20.4 kmh 29.62 in1003.0 mb - 0.00 in0.0 mm 0.00 in0.0 mm
06:45 PM 59.9°F15.5°C 26.6°F-3.0°C 28% 11.5 mph SSE18.5 kmh SSE 12.7 mph20.4 kmh 29.62 in1003.0 mb - 0.00 in0.0 mm 0.00 in0.0 mm
06:50 PM 59.5°F15.3°C 26.4°F-3.1°C 28% 9.2 mph SE14.8 kmh SE 11.5 mph18.5 kmh 29.62 in1003.0 mb - 0.00 in0.0 mm 0.00 in0.0 mm
06:55 PM 59.0°F15.0°C 25.9°F-3.4°C 28% 6.9 mph SSE11.1 kmh SSE 8.1 mph13.0 kmh 29.62 in1003.0 mb - 0.00 in0.0 mm 0.00 in0.0 mm
07:00 PM 58.6°F14.8°C 26.4°F-3.1°C 29% 8.1 mph ESE13.0 kmh ESE 11.5 mph18.5 kmh 29.63 in1003.4 mb - 0.00 in0.0 mm 0.00 in0.0 mm
07:10 PM 58.1°F14.5°C 26.0°F-3.3°C 29% 9.2 mph SE14.8 kmh SE 13.8 mph22.2 kmh 29.63 in1003.4 mb - 0.00 in0.0 mm 0.00 in0.0 mm
07:15 PM 57.7°F14.3°C 25.7°F-3.5°C 29% 5.8 mph SE9.3 kmh SE 11.5 mph18.5 kmh 29.63 in1003.4 mb - 0.00 in0.0 mm 0.00 in0.0 mm
07:20 PM 57.7°F14.3°C 25.7°F-3.5°C 29% 9.2 mph SE14.8 kmh SE 13.8 mph22.2 kmh 29.63 in1003.4 mb - 0.00 in0.0 mm 0.00 in0.0 mm
07:25 PM 57.6°F14.2°C 26.3°F-3.2°C 30% 8.1 mph S13.0 kmh S 11.5 mph18.5 kmh 29.63 in1003.4 mb - 0.00 in0.0 mm 0.00 in0.0 mm
07:30 PM 57.4°F14.1°C 26.2°F-3.2°C 30% 9.2 mph SE14.8 kmh SE 11.5 mph18.5 kmh 29.64 in1003.7 mb - 0.00 in0.0 mm 0.00 in0.0 mm
07:35 PM 57.2°F14.0°C 26.0°F-3.3°C 30% 8.1 mph SE13.0 kmh SE 9.2 mph14.8 kmh 29.64 in1003.7 mb - 0.00 in0.0 mm 0.00 in0.0 mm
07:40 PM 57.1°F13.9°C 25.9°F-3.4°C 30% 9.2 mph SE14.8 kmh SE 16.1 mph25.9 kmh 29.64 in1003.7 mb - 0.00 in0.0 mm 0.00 in0.0 mm
07:45 PM 57.0°F13.9°C 26.6°F-3.0°C 31% 9.2 mph SSE14.8 kmh SSE 11.5 mph18.5 kmh 29.64 in1003.7 mb - 0.00 in0.0 mm 0.00 in0.0 mm
07:50 PM 56.8°F13.8°C 25.7°F-3.5°C 30% 8.1 mph SSE13.0 kmh SSE 10.4 mph16.7 kmh 29.64 in1003.7 mb - 0.00 in0.0 mm 0.00 in0.0 mm
07:55 PM 56.7°F13.7°C 26.3°F-3.2°C 31% 8.1 mph S13.0 kmh S 9.2 mph14.8 kmh 29.64 in1003.7 mb - 0.00 in0.0 mm 0.00 in0.0 mm
08:00 PM 56.3°F13.5°C 26.0°F-3.3°C 31% 8.1 mph SSE13.0 kmh SSE 9.2 mph14.8 kmh 29.64 in1003.7 mb - 0.00 in0.0 mm 0.00 in0.0 mm
08:10 PM 55.7°F13.2°C 25.5°F-3.6°C 31% 6.9 mph ESE11.1 kmh ESE 10.4 mph16.7 kmh 29.64 in1003.7 mb - 0.00 in0.0 mm 0.00 in0.0 mm
08:15 PM 55.6°F13.1°C 25.4°F-3.7°C 31% 10.4 mph ESE16.7 kmh ESE 11.5 mph18.5 kmh 29.64 in1003.7 mb - 0.00 in0.0 mm 0.00 in0.0 mm
08:20 PM 55.0°F12.8°C 24.9°F-3.9°C 31% 4.6 mph SSE7.4 kmh SSE 6.9 mph11.1 kmh 29.64 in1003.7 mb - 0.00 in0.0 mm 0.00 in0.0 mm
08:25 PM 54.7°F12.6°C 24.6°F-4.1°C 31% 8.1 mph SSE13.0 kmh SSE 9.2 mph14.8 kmh 29.64 in1003.7 mb - 0.00 in0.0 mm 0.00 in0.0 mm
08:30 PM 54.3°F12.4°C 24.3°F-4.3°C 31% 5.8 mph S9.3 kmh S 6.9 mph11.1 kmh 29.65 in1004.1 mb - 0.00 in0.0 mm 0.00 in0.0 mm
08:35 PM 54.0°F12.2°C 24.0°F-4.4°C 31% 9.2 mph S14.8 kmh S 10.4 mph16.7 kmh 29.65 in1004.1 mb - 0.00 in0.0 mm 0.00 in0.0 mm
08:40 PM 53.8°F12.1°C 23.8°F-4.6°C 31% 9.2 mph SSE14.8 kmh SSE 9.2 mph14.8 kmh 29.65 in1004.1 mb - 0.00 in0.0 mm 0.00 in0.0 mm
08:45 PM 53.6°F12.0°C 23.6°F-4.7°C 31% 10.4 mph SE16.7 kmh SE 19.6 mph31.5 kmh 29.65 in1004.1 mb - 0.00 in0.0 mm 0.00 in0.0 mm
08:50 PM 53.2°F11.8°C 24.1°F-4.4°C 32% 12.7 mph ESE20.4 kmh ESE 15.0 mph24.1 kmh 29.65 in1004.1 mb - 0.00 in0.0 mm 0.00 in0.0 mm
08:55 PM 52.9°F11.6°C 23.8°F-4.6°C 32% 6.9 mph SE11.1 kmh SE 6.9 mph11.1 kmh 29.65 in1004.1 mb - 0.00 in0.0 mm 0.00 in0.0 mm
09:00 PM 52.5°F11.4°C 23.5°F-4.7°C 32% 9.2 mph SSE14.8 kmh SSE 15.0 mph24.1 kmh 29.66 in1004.4 mb - 0.00 in0.0 mm 0.00 in0.0 mm
09:10 PM 52.3°F11.3°C 23.3°F-4.8°C 32% 10.4 mph S16.7 kmh S 15.0 mph24.1 kmh 29.66 in1004.4 mb - 0.00 in0.0 mm 0.00 in0.0 mm
09:15 PM 52.2°F11.2°C 23.2°F-4.9°C 32% 10.4 mph SE16.7 kmh SE 12.7 mph20.4 kmh 29.65 in1004.1 mb - 0.00 in0.0 mm 0.00 in0.0 mm
09:20 PM 52.0°F11.1°C 23.0°F-5.0°C 32% 9.2 mph SSE14.8 kmh SSE 9.2 mph14.8 kmh 29.65 in1004.1 mb - 0.00 in0.0 mm 0.00 in0.0 mm
09:25 PM 51.8°F11.0°C 22.8°F-5.1°C 32% 9.2 mph SSE14.8 kmh SSE 11.5 mph18.5 kmh 29.65 in1004.1 mb - 0.00 in0.0 mm 0.00 in0.0 mm
09:30 PM 51.8°F11.0°C 22.8°F-5.1°C 32% 13.8 mph SE22.2 kmh SE 18.4 mph29.6 kmh 29.64 in1003.7 mb - 0.00 in0.0 mm 0.00 in0.0 mm
09:35 PM 51.5°F10.8°C 22.6°F-5.2°C 32% 8.1 mph ESE13.0 kmh ESE 8.1 mph13.0 kmh 29.64 in1003.7 mb - 0.00 in0.0 mm 0.00 in0.0 mm
09:40 PM 51.4°F10.8°C 22.5°F-5.3°C 32% 11.5 mph SE18.5 kmh SE 15.0 mph24.1 kmh 29.64 in1003.7 mb - 0.00 in0.0 mm 0.00 in0.0 mm
09:45 PM 51.1°F10.6°C 22.2°F-5.4°C 32% 9.2 mph SSE14.8 kmh SSE 10.4 mph16.7 kmh 29.65 in1004.1 mb - 0.00 in0.0 mm 0.00 in0.0 mm
09:50 PM 50.9°F10.5°C 22.1°F-5.5°C 32% 9.2 mph SE14.8 kmh SE 6.9 mph11.1 kmh 29.65 in1004.1 mb - 0.00 in0.0 mm 0.00 in0.0 mm
09:55 PM 50.7°F10.4°C 21.9°F-5.6°C 32% 8.1 mph SE13.0 kmh SE 10.4 mph16.7 kmh 29.65 in1004.1 mb - 0.00 in0.0 mm 0.00 in0.0 mm
10:00 PM 50.6°F10.3°C 21.8°F-5.7°C 32% 9.2 mph SSE14.8 kmh SSE 11.5 mph18.5 kmh 29.64 in1003.7 mb - 0.00 in0.0 mm 0.00 in0.0 mm
10:10 PM 50.5°F10.3°C 21.7°F-5.7°C 32% 12.7 mph S20.4 kmh S 15.0 mph24.1 kmh 29.64 in1003.7 mb - 0.00 in0.0 mm 0.00 in0.0 mm
10:15 PM 50.4°F10.2°C 21.6°F-5.8°C 32% 12.7 mph ESE20.4 kmh ESE 17.3 mph27.8 kmh 29.64 in1003.7 mb - 0.00 in0.0 mm 0.00 in0.0 mm
10:20 PM 50.4°F10.2°C 21.6°F-5.8°C 32% 9.2 mph S14.8 kmh S 9.2 mph14.8 kmh 29.64 in1003.7 mb - 0.00 in0.0 mm 0.00 in0.0 mm
10:25 PM 50.2°F10.1°C 21.4°F-5.9°C 32% 9.2 mph SE14.8 kmh SE 9.2 mph14.8 kmh 29.64 in1003.7 mb - 0.00 in0.0 mm 0.00 in0.0 mm
10:30 PM 50.2°F10.1°C 21.4°F-5.9°C 32% 9.2 mph SE14.8 kmh SE 11.5 mph18.5 kmh 29.65 in1004.1 mb - 0.00 in0.0 mm 0.00 in0.0 mm
10:35 PM 50.0°F10.0°C 21.3°F-5.9°C 32% 10.4 mph SE16.7 kmh SE 10.4 mph16.7 kmh 29.65 in1004.1 mb - 0.00 in0.0 mm 0.00 in0.0 mm
10:40 PM 50.0°F10.0°C 21.3°F-5.9°C 32% 11.5 mph SE18.5 kmh SE 13.8 mph22.2 kmh 29.65 in1004.1 mb - 0.00 in0.0 mm 0.00 in0.0 mm
10:45 PM 49.8°F9.9°C 21.8°F-5.7°C 33% 9.2 mph SSE14.8 kmh SSE 12.7 mph20.4 kmh 29.64 in1003.7 mb - 0.00 in0.0 mm 0.00 in0.0 mm
10:50 PM 49.6°F9.8°C 21.7°F-5.7°C 33% 10.4 mph S16.7 kmh S 12.7 mph20.4 kmh 29.64 in1003.7 mb - 0.00 in0.0 mm 0.00 in0.0 mm
10:55 PM 49.5°F9.7°C 21.5°F-5.8°C 33% 9.2 mph SE14.8 kmh SE 13.8 mph22.2 kmh 29.64 in1003.7 mb - 0.00 in0.0 mm 0.00 in0.0 mm
11:00 PM 49.3°F9.6°C 21.4°F-5.9°C 33% 10.4 mph SSW16.7 kmh SSW 15.0 mph24.1 kmh 29.66 in1004.4 mb - 0.00 in0.0 mm 0.00 in0.0 mm
11:10 PM 49.3°F9.6°C 21.4°F-5.9°C 33% 9.2 mph SSE14.8 kmh SSE 9.2 mph14.8 kmh 29.66 in1004.4 mb - 0.00 in0.0 mm 0.00 in0.0 mm
11:15 PM 49.1°F9.5°C 21.2°F-6.0°C 33% 12.7 mph S20.4 kmh S 16.1 mph25.9 kmh 29.64 in1003.7 mb - 0.00 in0.0 mm 0.00 in0.0 mm
11:20 PM 49.1°F9.5°C 21.2°F-6.0°C 33% 9.2 mph SSE14.8 kmh SSE 10.4 mph16.7 kmh 29.64 in1003.7 mb - 0.00 in0.0 mm 0.00 in0.0 mm
11:25 PM 49.1°F9.5°C 21.2°F-6.0°C 33% 10.4 mph SSE16.7 kmh SSE 15.0 mph24.1 kmh 29.64 in1003.7 mb - 0.00 in0.0 mm 0.00 in0.0 mm
11:30 PM 49.1°F9.5°C 21.2°F-6.0°C 33% 10.4 mph SSE16.7 kmh SSE 9.2 mph14.8 kmh 29.64 in1003.7 mb - 0.00 in0.0 mm 0.00 in0.0 mm
11:35 PM 48.9°F9.4°C 21.7°F-5.7°C 34% 11.5 mph SE18.5 kmh SE 12.7 mph20.4 kmh 29.64 in1003.7 mb - 0.00 in0.0 mm 0.00 in0.0 mm
11:40 PM 49.1°F9.5°C 21.2°F-6.0°C 33% 11.5 mph SSE18.5 kmh SSE 19.6 mph31.5 kmh 29.64 in1003.7 mb - 0.00 in0.0 mm 0.00 in0.0 mm
11:45 PM 48.9°F9.4°C 21.7°F-5.7°C 34% 10.4 mph SE16.7 kmh SE 11.5 mph18.5 kmh 29.64 in1003.7 mb - 0.00 in0.0 mm 0.00 in0.0 mm
11:50 PM 48.9°F9.4°C 21.7°F-5.7°C 34% 13.8 mph SSE22.2 kmh SSE 18.4 mph29.6 kmh 29.64 in1003.7 mb - 0.00 in0.0 mm 0.00 in0.0 mm
11:55 PM 48.9°F9.4°C 21.7°F-5.7°C 34% 12.7 mph SE20.4 kmh SE 16.1 mph25.9 kmh 29.64 in1003.7 mb - 0.00 in0.0 mm 0.00 in0.0 mm